createdAt,value
2019-05-09T00:02:08.651Z,10.07
2019-05-09T00:04:38.149Z,10.09
2019-05-09T00:07:07.608Z,10.08
2019-05-09T00:09:37.111Z,10.09
2019-05-09T00:12:06.600Z,10.07
2019-05-09T00:14:36.079Z,10.06
2019-05-09T00:17:05.548Z,10.06
2019-05-09T00:19:35.053Z,10.11
2019-05-09T00:22:04.509Z,10.08
2019-05-09T00:24:33.998Z,10.11
2019-05-09T00:27:03.963Z,10.05
2019-05-09T00:29:38.689Z,10.02
2019-05-09T00:32:27.165Z,10.04
2019-05-09T00:35:03.897Z,10.03
2019-05-09T00:37:53.489Z,9.97
2019-05-09T00:40:23.826Z,9.99
2019-05-09T00:42:53.723Z,9.98
2019-05-09T00:45:45.194Z,9.97
2019-05-09T00:48:16.929Z,9.95
2019-05-09T00:50:46.469Z,9.95
2019-05-09T00:53:16.004Z,9.96
2019-05-09T00:55:45.489Z,9.93
2019-05-09T00:58:14.954Z,9.90
2019-05-09T01:00:44.629Z,9.88
2019-05-09T01:03:14.331Z,9.90
2019-05-09T01:05:47.243Z,9.84
2019-05-09T01:08:15.166Z,9.85
2019-05-09T01:10:44.618Z,9.85
2019-05-09T01:13:14.313Z,9.84
2019-05-09T01:15:44.138Z,9.85
2019-05-09T01:18:13.554Z,9.85
2019-05-09T01:20:44.059Z,9.84
2019-05-09T01:23:14.372Z,9.81
2019-05-09T01:25:44.020Z,9.80
2019-05-09T01:28:14.065Z,9.81
2019-05-09T01:30:43.973Z,9.78
2019-05-09T01:33:33.306Z,9.78
2019-05-09T01:36:03.801Z,9.77
2019-05-09T01:38:34.049Z,9.77
2019-05-09T01:41:04.162Z,9.78
2019-05-09T01:43:33.980Z,9.74
2019-05-09T01:46:03.957Z,9.76
2019-05-09T01:48:34.273Z,9.73
2019-05-09T01:51:03.820Z,9.71
2019-05-09T01:53:36.305Z,9.68
2019-05-09T01:56:05.773Z,9.67
2019-05-09T01:58:35.300Z,9.65
2019-05-09T02:01:07.247Z,9.64
2019-05-09T02:03:36.657Z,9.63
2019-05-09T02:06:06.904Z,9.61
2019-05-09T02:08:36.367Z,9.60
2019-05-09T02:11:05.814Z,9.58
2019-05-09T02:13:35.318Z,9.49
2019-05-09T02:16:23.766Z,9.47
2019-05-09T02:18:58.950Z,9.43
2019-05-09T02:21:28.426Z,9.42
2019-05-09T02:23:57.880Z,9.41
2019-05-09T02:26:27.364Z,9.37
2019-05-09T02:28:56.823Z,9.37
2019-05-09T02:31:26.313Z,9.35
2019-05-09T02:33:55.877Z,9.30
2019-05-09T02:36:25.328Z,9.28
2019-05-09T02:38:54.760Z,9.28
2019-05-09T02:41:24.217Z,9.22
2019-05-09T02:43:53.698Z,9.19
2019-05-09T02:46:29.615Z,9.20
2019-05-09T02:48:59.596Z,9.20
2019-05-09T02:51:29.543Z,9.19
2019-05-09T02:53:59.136Z,9.16
2019-05-09T02:56:29.646Z,9.10
2019-05-09T02:59:05.439Z,9.12
2019-05-09T03:01:44.973Z,9.09
2019-05-09T03:04:14.420Z,9.04
2019-05-09T03:06:43.865Z,9.03
2019-05-09T03:09:14.950Z,9.02
2019-05-09T03:11:44.379Z,9.01
2019-05-09T03:14:13.959Z,9.00
2019-05-09T03:16:43.375Z,9.00
2019-05-09T03:19:12.848Z,8.98
2019-05-09T03:21:49.289Z,8.98
2019-05-09T03:24:18.872Z,8.96
2019-05-09T03:26:52.901Z,9.00
2019-05-09T03:29:30.189Z,8.97
2019-05-09T03:32:00.421Z,8.98
2019-05-09T03:34:30.361Z,8.93
2019-05-09T03:37:00.078Z,8.93
2019-05-09T03:39:29.528Z,8.95
2019-05-09T03:41:58.986Z,8.96
2019-05-09T03:44:28.466Z,8.97
2019-05-09T03:47:17.399Z,8.94
2019-05-09T03:50:08.075Z,8.96
2019-05-09T03:52:37.340Z,8.96
2019-05-09T03:55:07.828Z,8.97
2019-05-09T03:57:40.333Z,9.00
2019-05-09T04:00:10.887Z,8.99
2019-05-09T04:02:40.367Z,8.97
2019-05-09T04:05:10.036Z,8.94
2019-05-09T04:07:39.470Z,8.97
2019-05-09T04:10:08.953Z,8.86
2019-05-09T04:12:52.823Z,8.79
2019-05-09T04:15:09.617Z,8.73
2019-05-09T04:17:43.353Z,8.75
2019-05-09T04:20:14.144Z,8.83
2019-05-09T04:22:43.697Z,8.88
2019-05-09T04:25:18.134Z,8.96
2019-05-09T04:27:49.015Z,8.96
2019-05-09T04:30:19.069Z,9.06
2019-05-09T04:32:48.630Z,9.14
2019-05-09T04:35:18.109Z,9.11
2019-05-09T04:37:48.291Z,9.23
2019-05-09T04:40:17.997Z,9.32
2019-05-09T04:42:47.574Z,9.44
2019-05-09T04:45:28.296Z,9.47
2019-05-09T04:47:57.917Z,9.56
2019-05-09T04:50:27.899Z,9.62
2019-05-09T04:53:18.296Z,9.71
2019-05-09T04:55:47.998Z,9.80
2019-05-09T04:58:19.121Z,9.79
2019-05-09T05:01:14.973Z,9.83
2019-05-09T05:03:45.226Z,9.88
2019-05-09T05:06:18.111Z,9.90
2019-05-09T05:08:47.902Z,9.88
2019-05-09T05:11:17.866Z,9.93
2019-05-09T05:13:48.158Z,9.88
2019-05-09T05:16:18.452Z,9.91
2019-05-09T05:18:47.972Z,9.98
2019-05-09T05:21:20.002Z,9.96
2019-05-09T05:24:05.210Z,9.99
2019-05-09T05:26:34.660Z,9.90
2019-05-09T05:29:05.315Z,9.82
2019-05-09T05:31:34.769Z,9.84
2019-05-09T05:34:14.762Z,9.88
2019-05-09T05:36:44.342Z,9.87
2019-05-09T05:39:15.044Z,9.80
2019-05-09T05:41:44.502Z,9.80
2019-05-09T05:44:13.968Z,9.80
2019-05-09T05:46:59.996Z,9.86
2019-05-09T05:49:29.568Z,9.84
2019-05-09T05:51:59.033Z,9.90
2019-05-09T05:54:28.530Z,9.85
2019-05-09T05:56:58.104Z,9.87
2019-05-09T05:59:28.574Z,9.94
2019-05-09T06:01:58.657Z,9.98
2019-05-09T06:04:28.177Z,9.98
2019-05-09T06:06:58.890Z,10.03
2019-05-09T06:09:28.480Z,9.99
2019-05-09T06:11:58.020Z,10.15
2019-05-09T06:14:28.567Z,10.18
2019-05-09T06:16:58.715Z,10.27
2019-05-09T06:19:28.847Z,10.37
2019-05-09T06:21:58.473Z,10.51
2019-05-09T06:24:28.371Z,10.50
2019-05-09T06:26:58.672Z,10.66
2019-05-09T06:29:28.881Z,10.69
2019-05-09T06:31:58.674Z,10.77
2019-05-09T06:34:28.250Z,10.82
2019-05-09T06:36:58.688Z,10.89
2019-05-09T06:39:28.645Z,10.89
2019-05-09T06:41:58.110Z,10.92
2019-05-09T06:44:37.466Z,10.81
2019-05-09T06:47:18.972Z,10.94
2019-05-09T06:49:51.567Z,11.09
2019-05-09T06:52:21.062Z,11.04
2019-05-09T06:54:50.542Z,11.05
2019-05-09T06:57:20.016Z,10.83
2019-05-09T06:59:49.559Z,10.88
2019-05-09T07:02:34.132Z,10.79
2019-05-09T07:05:21.407Z,10.89
2019-05-09T07:08:08.141Z,10.82
2019-05-09T07:10:37.837Z,10.96
2019-05-09T07:13:07.931Z,11.03
2019-05-09T07:15:37.789Z,11.08
2019-05-09T07:18:08.118Z,11.14
2019-05-09T07:20:37.987Z,11.21
2019-05-09T07:23:08.984Z,11.18
2019-05-09T07:25:50.839Z,11.23
2019-05-09T07:28:20.345Z,11.26
2019-05-09T07:31:07.789Z,11.36
2019-05-09T07:34:14.884Z,11.23
2019-05-09T07:36:44.434Z,11.44
2019-05-09T07:39:13.967Z,11.47
2019-05-09T07:41:43.396Z,11.58
2019-05-09T07:44:12.860Z,11.52
2019-05-09T07:46:50.467Z,11.85
2019-05-09T07:49:19.928Z,11.79
2019-05-09T07:51:49.401Z,11.60
2019-05-09T07:54:25.094Z,11.47
2019-05-09T07:56:50.198Z,11.53
2019-05-09T07:59:19.715Z,11.62
2019-05-09T08:01:49.184Z,11.53
2019-05-09T08:04:18.760Z,11.58
2019-05-09T08:06:48.759Z,11.70
2019-05-09T08:09:18.744Z,11.70
2019-05-09T08:11:48.507Z,11.79
2019-05-09T08:14:18.003Z,11.95
2019-05-09T08:16:47.700Z,12.05
2019-05-09T08:19:18.109Z,12.09
2019-05-09T08:21:48.082Z,12.18
2019-05-09T08:24:18.351Z,12.07
2019-05-09T08:26:47.969Z,12.25
2019-05-09T08:29:19.943Z,12.29
2019-05-09T08:31:48.767Z,12.16
2019-05-09T08:34:18.785Z,12.12
2019-05-09T08:36:48.294Z,12.09
2019-05-09T08:39:18.544Z,12.24
2019-05-09T08:41:49.012Z,12.36
2019-05-09T08:44:18.794Z,12.41
2019-05-09T08:46:48.554Z,12.19
2019-05-09T08:49:20.428Z,12.34
2019-05-09T08:52:09.136Z,12.43
2019-05-09T08:54:44.512Z,12.39
2019-05-09T08:57:14.107Z,12.22
2019-05-09T08:59:47.150Z,12.34
2019-05-09T09:02:21.023Z,12.49
2019-05-09T09:04:48.935Z,12.55
2019-05-09T09:07:18.962Z,12.57
2019-05-09T09:09:48.571Z,12.93
2019-05-09T09:12:27.228Z,13.15
2019-05-09T09:14:49.247Z,13.17
2019-05-09T09:17:18.979Z,13.20
2019-05-09T09:19:48.437Z,13.24
2019-05-09T09:22:18.163Z,13.44
2019-05-09T09:24:48.268Z,13.50
2019-05-09T09:27:18.370Z,13.53
2019-05-09T09:29:48.286Z,13.60
2019-05-09T09:32:18.893Z,13.80
2019-05-09T09:34:48.729Z,13.71
2019-05-09T09:37:18.651Z,13.83
2019-05-09T09:39:48.994Z,13.86
2019-05-09T09:42:19.836Z,13.86
2019-05-09T09:44:49.679Z,13.69
2019-05-09T09:47:23.033Z,13.87
2019-05-09T09:49:50.323Z,14.19
2019-05-09T09:52:19.764Z,14.43
2019-05-09T09:54:49.423Z,14.50
2019-05-09T09:57:19.201Z,14.56
2019-05-09T09:59:59.122Z,14.49
2019-05-09T10:02:31.977Z,14.30
2019-05-09T10:05:01.461Z,14.28
2019-05-09T10:07:31.092Z,14.27
2019-05-09T10:10:00.551Z,14.19
2019-05-09T10:12:30.093Z,14.45
2019-05-09T10:15:12.782Z,14.73
2019-05-09T10:18:10.071Z,14.96
2019-05-09T10:20:48.347Z,15.15
2019-05-09T10:23:20.772Z,15.26
2019-05-09T10:25:48.418Z,15.36
2019-05-09T10:28:21.352Z,15.53
2019-05-09T10:30:49.177Z,15.39
2019-05-09T10:33:18.591Z,15.27
2019-05-09T10:35:48.075Z,14.98
2019-05-09T10:38:18.477Z,14.98
2019-05-09T10:40:48.843Z,15.20
2019-05-09T10:43:44.342Z,15.29
2019-05-09T10:46:48.353Z,15.70
2019-05-09T10:49:04.236Z,16.12
2019-05-09T10:51:33.677Z,16.21
2019-05-09T10:54:03.168Z,15.63
2019-05-09T10:56:32.735Z,15.35
2019-05-09T10:59:02.178Z,15.37
2019-05-09T11:01:31.626Z,15.22
2019-05-09T11:04:01.112Z,15.12
2019-05-09T11:06:30.580Z,14.97
2019-05-09T11:09:00.215Z,14.77
2019-05-09T11:11:29.781Z,14.76
2019-05-09T11:13:59.361Z,14.84
2019-05-09T11:16:41.939Z,15.00
2019-05-09T11:19:00.038Z,15.05
2019-05-09T11:21:29.493Z,15.17
2019-05-09T11:23:58.946Z,15.15
2019-05-09T11:26:28.968Z,15.29
2019-05-09T11:28:59.027Z,15.48
2019-05-09T11:31:29.579Z,15.81
2019-05-09T11:33:59.242Z,16.15
2019-05-09T11:36:28.684Z,15.76
2019-05-09T11:39:00.608Z,15.67
2019-05-09T11:41:30.338Z,15.53
2019-05-09T11:44:00.096Z,15.70
2019-05-09T11:46:29.639Z,15.71
2019-05-09T11:48:59.233Z,15.84
2019-05-09T11:51:29.438Z,15.73
2019-05-09T11:53:59.172Z,16.16
2019-05-09T11:56:28.666Z,16.47
2019-05-09T11:58:58.216Z,16.68
2019-05-09T12:01:29.194Z,16.65
2019-05-09T12:03:58.972Z,16.51
2019-05-09T12:06:29.162Z,16.45
2019-05-09T12:08:59.175Z,16.07
2019-05-09T12:11:28.916Z,15.89
2019-05-09T12:13:58.465Z,15.84
2019-05-09T12:16:28.193Z,15.93
2019-05-09T12:18:58.356Z,16.83
2019-05-09T12:21:28.948Z,17.78
2019-05-09T12:23:58.719Z,18.65
2019-05-09T12:26:29.131Z,19.00
2019-05-09T12:28:59.007Z,18.76
2019-05-09T12:31:29.091Z,18.82
2019-05-09T12:33:59.482Z,18.87
2019-05-09T12:36:29.214Z,20.63
2019-05-09T12:38:59.513Z,22.83
2019-05-09T12:41:31.602Z,24.10
2019-05-09T12:44:00.300Z,24.87
2019-05-09T12:46:29.753Z,24.83
2019-05-09T12:49:00.379Z,26.27
2019-05-09T12:51:30.746Z,26.79
2019-05-09T12:54:01.197Z,26.68
2019-05-09T12:56:31.686Z,24.42
2019-05-09T12:59:02.410Z,22.90
2019-05-09T13:01:33.684Z,24.00
2019-05-09T13:04:04.202Z,24.55
2019-05-09T13:06:34.726Z,23.10
2019-05-09T13:09:08.316Z,23.73
2019-05-09T13:11:39.268Z,25.70
2019-05-09T13:14:10.355Z,25.20
2019-05-09T13:16:59.975Z,23.04
2019-05-09T13:19:38.190Z,23.20
2019-05-09T13:22:08.989Z,25.46
2019-05-09T13:24:39.551Z,24.58
2019-05-09T13:27:10.063Z,25.18
2019-05-09T13:29:40.562Z,26.01
2019-05-09T13:32:11.079Z,28.89
2019-05-09T13:34:41.643Z,27.35
2019-05-09T13:37:13.198Z,29.55
2019-05-09T13:39:43.699Z,27.64
2019-05-09T13:42:14.334Z,25.88
2019-05-09T13:44:47.432Z,26.59
2019-05-09T13:47:17.999Z,26.98
2019-05-09T13:49:48.758Z,28.33
2019-05-09T13:52:19.465Z,27.99
2019-05-09T13:54:50.004Z,26.16
2019-05-09T13:57:20.504Z,24.19
2019-05-09T13:59:51.092Z,22.92
2019-05-09T14:02:21.736Z,21.85
2019-05-09T14:04:52.215Z,21.55
2019-05-09T14:07:22.722Z,21.07
2019-05-09T14:09:53.426Z,20.88
2019-05-09T14:12:24.236Z,22.53
2019-05-09T14:14:54.934Z,22.95
2019-05-09T14:17:44.907Z,23.12
2019-05-09T14:19:57.960Z,22.65
2019-05-09T14:22:28.703Z,24.08
2019-05-09T14:24:59.231Z,26.15
2019-05-09T14:27:29.808Z,29.13
2019-05-09T14:30:00.448Z,28.17
2019-05-09T14:32:35.004Z,26.19
2019-05-09T14:35:03.635Z,25.93
2019-05-09T14:37:34.181Z,25.03
2019-05-09T14:40:05.947Z,25.27
2019-05-09T14:42:39.103Z,25.38
2019-05-09T14:45:09.490Z,23.54
2019-05-09T14:47:42.569Z,22.44
2019-05-09T14:52:50.326Z,20.59
2019-05-09T14:55:21.317Z,20.48
2019-05-09T14:57:50.968Z,19.97
2019-05-09T15:00:21.554Z,19.94
2019-05-09T15:02:51.223Z,19.46
2019-05-09T15:05:21.912Z,19.57
2019-05-09T15:07:53.889Z,19.73
2019-05-09T15:10:24.991Z,19.85
2019-05-09T15:12:58.369Z,19.42
2019-05-09T15:15:32.316Z,19.27
2019-05-09T15:18:00.621Z,19.07
2019-05-09T15:20:31.473Z,19.33
2019-05-09T15:23:02.102Z,21.49
2019-05-09T15:25:32.703Z,23.62
2019-05-09T15:28:03.346Z,26.53
2019-05-09T15:30:34.013Z,25.46
2019-05-09T15:33:04.630Z,27.15
2019-05-09T15:35:35.397Z,27.60
2019-05-09T15:38:08.378Z,30.04
2019-05-09T15:40:38.773Z,29.01
2019-05-09T15:43:09.423Z,29.00
2019-05-09T15:45:48.289Z,27.46
2019-05-09T15:48:18.163Z,25.96
2019-05-09T15:50:47.952Z,24.19
2019-05-09T15:53:18.450Z,22.63
2019-05-09T15:55:48.335Z,21.81
2019-05-09T15:58:19.030Z,22.41
2019-05-09T16:00:48.772Z,23.89
2019-05-09T16:03:18.750Z,23.09
2019-05-09T16:05:48.374Z,22.23
2019-05-09T16:08:18.975Z,21.52
2019-05-09T16:10:49.558Z,20.53
2019-05-09T16:13:20.153Z,20.66
2019-05-09T16:15:50.827Z,21.34
2019-05-09T16:18:21.311Z,22.31
2019-05-09T16:21:24.695Z,23.56
2019-05-09T16:24:27.977Z,23.99
2019-05-09T16:27:00.595Z,22.77
2019-05-09T16:32:48.162Z,20.34
2019-05-09T16:35:18.951Z,19.97
2019-05-09T16:38:01.707Z,19.13
2019-05-09T16:40:22.565Z,18.52
2019-05-09T16:42:53.276Z,18.26
2019-05-09T16:45:23.929Z,18.03
2019-05-09T16:47:54.519Z,18.05
2019-05-09T16:50:25.087Z,17.61
2019-05-09T16:52:58.455Z,17.31
2019-05-09T16:55:33.412Z,17.29
2019-05-09T16:58:04.729Z,17.21
2019-05-09T17:00:47.984Z,17.16
2019-05-09T17:03:18.692Z,17.21
2019-05-09T17:05:49.605Z,17.27
2019-05-09T17:08:20.245Z,17.01
2019-05-09T17:10:50.870Z,17.22
2019-05-09T17:13:21.609Z,17.17
2019-05-09T17:15:52.293Z,17.16
2019-05-09T17:18:22.867Z,17.07
2019-05-09T17:21:15.134Z,16.96
2019-05-09T17:23:33.845Z,17.23
2019-05-09T17:26:04.514Z,17.16
2019-05-09T17:28:37.446Z,16.86
2019-05-09T17:31:08.645Z,16.84
2019-05-09T17:33:39.411Z,16.68
2019-05-09T17:36:10.194Z,16.42
2019-05-09T17:38:40.811Z,16.28
2019-05-09T17:41:11.423Z,16.27
2019-05-09T17:43:42.122Z,16.23
2019-05-09T17:46:12.740Z,16.04
2019-05-09T17:48:43.485Z,16.32
2019-05-09T17:51:25.932Z,16.21
2019-05-09T17:53:51.927Z,16.00
2019-05-09T17:56:20.704Z,15.88
2019-05-09T17:58:51.198Z,15.59
2019-05-09T18:01:21.809Z,15.19
2019-05-09T18:03:52.474Z,14.95
2019-05-09T18:06:23.208Z,14.72
2019-05-09T18:08:53.801Z,14.67
2019-05-09T18:11:24.468Z,14.56
2019-05-09T18:13:55.184Z,14.40
2019-05-09T18:16:28.527Z,14.16
2019-05-09T18:19:00.476Z,13.96
2019-05-09T18:21:31.060Z,13.88
2019-05-09T18:24:02.015Z,13.73
2019-05-09T18:26:32.804Z,13.66
2019-05-09T18:29:03.367Z,13.61
2019-05-09T18:31:54.961Z,13.49
2019-05-09T18:34:25.627Z,13.46
2019-05-09T18:36:58.620Z,13.30
2019-05-09T18:39:28.900Z,13.23
2019-05-09T18:41:59.469Z,13.08
2019-05-09T18:44:31.151Z,13.01
2019-05-09T18:47:01.783Z,12.87
2019-05-09T18:49:32.394Z,12.76
2019-05-09T18:54:52.633Z,12.58
2019-05-09T18:57:23.327Z,12.45
2019-05-09T18:59:53.878Z,12.39
2019-05-09T19:02:24.498Z,12.41
2019-05-09T19:04:55.127Z,12.38
2019-05-09T19:07:25.688Z,12.36
2019-05-09T19:09:56.450Z,12.23
2019-05-09T19:12:27.015Z,12.27
2019-05-09T19:14:57.935Z,12.30
2019-05-09T19:17:50.683Z,12.31
2019-05-09T19:20:36.639Z,12.34
2019-05-09T19:23:07.330Z,12.38
2019-05-09T19:25:38.235Z,12.40
2019-05-09T19:28:08.842Z,12.40
2019-05-09T19:30:40.367Z,12.43
2019-05-09T19:33:11.113Z,12.49
2019-05-09T19:35:41.991Z,12.46
2019-05-09T19:38:12.959Z,12.41
2019-05-09T19:40:43.640Z,12.32
2019-05-09T19:43:14.580Z,12.21
2019-05-09T19:45:45.300Z,12.08
2019-05-09T19:48:16.031Z,12.09
2019-05-09T19:50:46.658Z,12.03
2019-05-09T19:53:17.649Z,11.97
2019-05-09T19:55:48.965Z,11.90
2019-05-09T19:58:19.578Z,11.83
2019-05-09T20:00:50.388Z,11.74
2019-05-09T20:03:21.251Z,11.67
2019-05-09T20:05:51.978Z,11.59
2019-05-09T20:08:23.373Z,11.59
2019-05-09T20:11:11.627Z,11.64
2019-05-09T20:14:00.003Z,11.72
2019-05-09T20:16:32.423Z,11.68
2019-05-09T20:19:03.174Z,11.74
2019-05-09T20:21:33.814Z,11.73
2019-05-09T20:24:05.386Z,11.71
2019-05-09T20:26:36.122Z,11.72
2019-05-09T20:29:06.751Z,11.64
2019-05-09T20:31:37.307Z,11.65
2019-05-09T20:34:07.848Z,11.67
2019-05-09T20:36:39.015Z,11.63
2019-05-09T20:39:09.810Z,11.57
2019-05-09T20:41:40.516Z,11.48
2019-05-09T20:44:11.324Z,11.45
2019-05-09T20:46:44.114Z,11.41
2019-05-09T20:49:14.864Z,11.28
2019-05-09T20:51:45.559Z,11.33
2019-05-09T20:54:21.162Z,11.18
2019-05-09T20:56:49.615Z,11.05
2019-05-09T20:59:20.287Z,11.10
2019-05-09T21:01:51.153Z,11.12
2019-05-09T21:04:22.205Z,11.02
2019-05-09T21:06:52.848Z,10.92
2019-05-09T21:09:23.628Z,10.95
2019-05-09T21:11:54.235Z,10.89
2019-05-09T21:14:24.931Z,10.89
2019-05-09T21:16:55.773Z,10.93
2019-05-09T21:19:26.482Z,10.96
2019-05-09T21:21:57.179Z,10.95
2019-05-09T21:24:27.882Z,11.02
2019-05-09T21:26:58.512Z,11.14
2019-05-09T21:29:29.195Z,11.19
2019-05-09T21:31:59.923Z,11.25
2019-05-09T21:34:30.575Z,11.28
2019-05-09T21:37:01.058Z,11.33
2019-05-09T21:39:31.542Z,11.34
2019-05-09T21:42:02.119Z,11.32
2019-05-09T21:44:32.563Z,11.33
2019-05-09T21:47:03.060Z,11.36
2019-05-09T21:49:33.528Z,11.43
2019-05-09T21:52:04.000Z,11.48
2019-05-09T21:54:34.505Z,11.47
2019-05-09T21:57:04.990Z,11.48
2019-05-09T21:59:35.454Z,11.44
2019-05-09T22:02:06.351Z,11.43
2019-05-09T22:04:36.827Z,11.41
2019-05-09T22:07:07.328Z,11.43
2019-05-09T22:09:37.822Z,11.41
2019-05-09T22:12:08.613Z,11.39
2019-05-09T22:14:39.116Z,11.40
2019-05-09T22:17:16.836Z,11.36
2019-05-09T22:19:47.324Z,11.34
2019-05-09T22:22:17.778Z,11.29
2019-05-09T22:24:48.279Z,11.30
2019-05-09T22:27:18.754Z,11.31
2019-05-09T22:29:49.227Z,11.35
2019-05-09T22:32:22.079Z,11.28
2019-05-09T22:34:52.037Z,11.32
2019-05-09T22:37:22.623Z,11.27
2019-05-09T22:39:53.101Z,11.31
2019-05-09T22:42:23.619Z,11.34
2019-05-09T22:44:54.093Z,11.27
2019-05-09T22:47:24.613Z,11.21
2019-05-09T22:49:55.098Z,11.18
2019-05-09T22:52:25.563Z,11.12
2019-05-09T22:54:56.096Z,11.11
2019-05-09T22:57:26.602Z,11.14
2019-05-09T22:59:57.107Z,11.09
2019-05-09T23:02:27.581Z,11.12
2019-05-09T23:04:58.052Z,11.08
2019-05-09T23:07:28.527Z,11.05
2019-05-09T23:09:59.017Z,10.97
2019-05-09T23:12:29.498Z,10.92
2019-05-09T23:14:59.972Z,10.88
2019-05-09T23:17:30.887Z,10.82
2019-05-09T23:20:03.021Z,10.87
2019-05-09T23:22:33.563Z,10.97
2019-05-09T23:25:04.165Z,11.07
2019-05-09T23:27:34.630Z,11.26
2019-05-09T23:30:06.994Z,11.49
2019-05-09T23:32:41.557Z,11.52
2019-05-09T23:35:12.201Z,11.75
2019-05-09T23:37:42.692Z,11.75
2019-05-09T23:40:13.452Z,11.77
2019-05-09T23:42:43.936Z,11.75
2019-05-09T23:45:14.434Z,11.70
2019-05-09T23:47:44.916Z,11.73
2019-05-09T23:50:15.395Z,11.71
2019-05-09T23:52:45.808Z,11.61
2019-05-09T23:55:35.608Z,11.53
2019-05-09T23:58:23.976Z,11.43
